sensor_id;sensor_type;location;lat;lon;timestamp;P1;durP1;ratioP1;P2;durP2;ratioP2
30020;SDS011;16861;52.294;7.760;2022-09-29T00:00:42;4.53;;;2.90;;
30020;SDS011;16861;52.294;7.760;2022-09-29T00:03:09;4.22;;;2.70;;
30020;SDS011;16861;52.294;7.760;2022-09-29T00:05:36;5.18;;;2.80;;
30020;SDS011;16861;52.294;7.760;2022-09-29T00:08:02;2.42;;;2.22;;
30020;SDS011;16861;52.294;7.760;2022-09-29T00:10:29;2.88;;;2.58;;
30020;SDS011;16861;52.294;7.760;2022-09-29T00:12:56;2.70;;;2.50;;
30020;SDS011;16861;52.294;7.760;2022-09-29T00:15:22;2.97;;;2.72;;
30020;SDS011;16861;52.294;7.760;2022-09-29T00:17:49;3.17;;;2.63;;
30020;SDS011;16861;52.294;7.760;2022-09-29T00:20:35;4.55;;;3.00;;
30020;SDS011;16861;52.294;7.760;2022-09-29T00:23:03;3.33;;;3.03;;
30020;SDS011;16861;52.294;7.760;2022-09-29T00:25:29;3.35;;;3.00;;
30020;SDS011;16861;52.294;7.760;2022-09-29T00:27:56;6.20;;;3.38;;
30020;SDS011;16861;52.294;7.760;2022-09-29T00:30:23;3.63;;;3.33;;
30020;SDS011;16861;52.294;7.760;2022-09-29T00:32:49;4.30;;;3.70;;
30020;SDS011;16861;52.294;7.760;2022-09-29T00:35:16;3.20;;;3.00;;
30020;SDS011;16861;52.294;7.760;2022-09-29T00:37:43;4.68;;;3.63;;
30020;SDS011;16861;52.294;7.760;2022-09-29T00:40:10;3.55;;;3.25;;
30020;SDS011;16861;52.294;7.760;2022-09-29T00:42:37;3.60;;;3.30;;
30020;SDS011;16861;52.294;7.760;2022-09-29T00:47:49;4.43;;;4.00;;
30020;SDS011;16861;52.294;7.760;2022-09-29T00:50:24;6.57;;;4.10;;
30020;SDS011;16861;52.294;7.760;2022-09-29T00:52:58;6.82;;;4.20;;
30020;SDS011;16861;52.294;7.760;2022-09-29T00:55:29;5.05;;;4.45;;
30020;SDS011;16861;52.294;7.760;2022-09-29T00:58:34;5.15;;;4.60;;
30020;SDS011;16861;52.294;7.760;2022-09-29T01:00:52;5.00;;;4.47;;
30020;SDS011;16861;52.294;7.760;2022-09-29T01:03:20;5.05;;;4.55;;
30020;SDS011;16861;52.294;7.760;2022-09-29T01:05:50;7.10;;;4.75;;
30020;SDS011;16861;52.294;7.760;2022-09-29T01:08:28;6.55;;;4.97;;
30020;SDS011;16861;52.294;7.760;2022-09-29T01:10:59;6.63;;;5.10;;
30020;SDS011;16861;52.294;7.760;2022-09-29T01:13:27;5.90;;;4.82;;
30020;SDS011;16861;52.294;7.760;2022-09-29T01:15:55;6.00;;;5.40;;
30020;SDS011;16861;52.294;7.760;2022-09-29T01:18:22;6.60;;;5.43;;
30020;SDS011;16861;52.294;7.760;2022-09-29T01:20:55;7.35;;;5.32;;
30020;SDS011;16861;52.294;7.760;2022-09-29T01:32:06;5.38;;;4.88;;
30020;SDS011;16861;52.294;7.760;2022-09-29T01:34:59;5.82;;;5.00;;
30020;SDS011;16861;52.294;7.760;2022-09-29T01:37:36;5.40;;;4.90;;
30020;SDS011;16861;52.294;7.760;2022-09-29T01:40:15;6.35;;;5.75;;
30020;SDS011;16861;52.294;7.760;2022-09-29T01:42:54;6.47;;;5.57;;
30020;SDS011;16861;52.294;7.760;2022-09-29T01:45:28;8.18;;;5.88;;
30020;SDS011;16861;52.294;7.760;2022-09-29T01:48:03;7.70;;;6.28;;
30020;SDS011;16861;52.294;7.760;2022-09-29T01:50:36;6.57;;;5.88;;
30020;SDS011;16861;52.294;7.760;2022-09-29T01:53:08;9.10;;;5.40;;
30020;SDS011;16861;52.294;7.760;2022-09-29T01:55:46;6.35;;;5.63;;
30020;SDS011;16861;52.294;7.760;2022-09-29T01:58:21;8.95;;;7.18;;
30020;SDS011;16861;52.294;7.760;2022-09-29T02:00:56;9.00;;;7.00;;
30020;SDS011;16861;52.294;7.760;2022-09-29T02:03:28;8.70;;;6.75;;
30020;SDS011;16861;52.294;7.760;2022-09-29T02:06:02;8.93;;;6.35;;
30020;SDS011;16861;52.294;7.760;2022-09-29T02:11:20;11.40;;;7.10;;
30020;SDS011;16861;52.294;7.760;2022-09-29T02:13:58;8.75;;;7.57;;
30020;SDS011;16861;52.294;7.760;2022-09-29T02:16:58;8.60;;;7.53;;
30020;SDS011;16861;52.294;7.760;2022-09-29T02:19:47;9.00;;;8.00;;
30020;SDS011;16861;52.294;7.760;2022-09-29T02:22:16;9.40;;;8.40;;
30020;SDS011;16861;52.294;7.760;2022-09-29T02:24:43;8.93;;;8.00;;
30020;SDS011;16861;52.294;7.760;2022-09-29T02:27:10;10.10;;;8.35;;
30020;SDS011;16861;52.294;7.760;2022-09-29T02:29:38;9.95;;;8.93;;
30020;SDS011;16861;52.294;7.760;2022-09-29T02:32:04;10.65;;;8.85;;
30020;SDS011;16861;52.294;7.760;2022-09-29T02:34:39;11.88;;;8.70;;
30020;SDS011;16861;52.294;7.760;2022-09-29T02:43:08;10.13;;;8.88;;
30020;SDS011;16861;52.294;7.760;2022-09-29T02:51:17;8.98;;;8.05;;
30020;SDS011;16861;52.294;7.760;2022-09-29T02:56:48;11.30;;;8.57;;
30020;SDS011;16861;52.294;7.760;2022-09-29T02:59:29;10.65;;;8.60;;
30020;SDS011;16861;52.294;7.760;2022-09-29T03:02:02;9.35;;;8.35;;
30020;SDS011;16861;52.294;7.760;2022-09-29T03:04:29;11.32;;;8.70;;
30020;SDS011;16861;52.294;7.760;2022-09-29T03:06:55;10.98;;;8.57;;
30020;SDS011;16861;52.294;7.760;2022-09-29T03:09:22;12.90;;;9.38;;
30020;SDS011;16861;52.294;7.760;2022-09-29T03:11:49;11.10;;;9.18;;
30020;SDS011;16861;52.294;7.760;2022-09-29T03:14:15;12.73;;;8.95;;
30020;SDS011;16861;52.294;7.760;2022-09-29T03:16:42;11.45;;;9.90;;
30020;SDS011;16861;52.294;7.760;2022-09-29T03:19:09;11.40;;;9.85;;
30020;SDS011;16861;52.294;7.760;2022-09-29T03:21:36;12.20;;;10.88;;
30020;SDS011;16861;52.294;7.760;2022-09-29T03:24:03;16.67;;;11.45;;
30020;SDS011;16861;52.294;7.760;2022-09-29T03:26:29;48.70;;;14.18;;
30020;SDS011;16861;52.294;7.760;2022-09-29T03:28:56;66.38;;;15.55;;
30020;SDS011;16861;52.294;7.760;2022-09-29T03:31:22;54.60;;;14.45;;
30020;SDS011;16861;52.294;7.760;2022-09-29T03:33:49;72.25;;;16.02;;
30020;SDS011;16861;52.294;7.760;2022-09-29T03:36:16;21.35;;;13.93;;
30020;SDS011;16861;52.294;7.760;2022-09-29T03:38:42;27.08;;;14.10;;
30020;SDS011;16861;52.294;7.760;2022-09-29T03:41:10;31.17;;;13.75;;
30020;SDS011;16861;52.294;7.760;2022-09-29T03:43:37;36.35;;;14.65;;
30020;SDS011;16861;52.294;7.760;2022-09-29T03:46:04;31.48;;;14.65;;
30020;SDS011;16861;52.294;7.760;2022-09-29T03:48:31;35.72;;;15.18;;
30020;SDS011;16861;52.294;7.760;2022-09-29T03:51:00;19.10;;;12.82;;
30020;SDS011;16861;52.294;7.760;2022-09-29T03:53:27;63.03;;;15.93;;
30020;SDS011;16861;52.294;7.760;2022-09-29T03:55:53;27.08;;;14.82;;
30020;SDS011;16861;52.294;7.760;2022-09-29T03:58:20;30.10;;;14.30;;
30020;SDS011;16861;52.294;7.760;2022-09-29T04:00:47;19.88;;;14.68;;
30020;SDS011;16861;52.294;7.760;2022-09-29T04:03:15;45.58;;;15.10;;
30020;SDS011;16861;52.294;7.760;2022-09-29T04:05:43;46.08;;;14.98;;
30020;SDS011;16861;52.294;7.760;2022-09-29T04:08:11;54.05;;;15.45;;
30020;SDS011;16861;52.294;7.760;2022-09-29T04:10:37;46.78;;;15.73;;
30020;SDS011;16861;52.294;7.760;2022-09-29T04:13:04;38.17;;;14.95;;
30020;SDS011;16861;52.294;7.760;2022-09-29T04:15:32;55.67;;;16.02;;
30020;SDS011;16861;52.294;7.760;2022-09-29T04:17:59;39.97;;;13.27;;
30020;SDS011;16861;52.294;7.760;2022-09-29T04:20:26;23.88;;;14.32;;
30020;SDS011;16861;52.294;7.760;2022-09-29T04:22:52;36.10;;;14.20;;
30020;SDS011;16861;52.294;7.760;2022-09-29T04:25:19;43.88;;;15.63;;
30020;SDS011;16861;52.294;7.760;2022-09-29T04:27:46;102.45;;;16.73;;
30020;SDS011;16861;52.294;7.760;2022-09-29T04:30:12;69.35;;;17.23;;
30020;SDS011;16861;52.294;7.760;2022-09-29T04:32:39;51.28;;;15.55;;
30020;SDS011;16861;52.294;7.760;2022-09-29T04:35:06;18.25;;;13.80;;
30020;SDS011;16861;52.294;7.760;2022-09-29T04:37:33;38.35;;;14.85;;
30020;SDS011;16861;52.294;7.760;2022-09-29T04:39:59;55.45;;;15.95;;
30020;SDS011;16861;52.294;7.760;2022-09-29T04:42:27;43.72;;;16.67;;
30020;SDS011;16861;52.294;7.760;2022-09-29T04:44:54;23.58;;;15.52;;
30020;SDS011;16861;52.294;7.760;2022-09-29T04:47:21;23.90;;;15.95;;
30020;SDS011;16861;52.294;7.760;2022-09-29T04:49:47;58.78;;;18.13;;
30020;SDS011;16861;52.294;7.760;2022-09-29T04:52:14;27.45;;;17.15;;
30020;SDS011;16861;52.294;7.760;2022-09-29T04:54:41;28.95;;;17.48;;
30020;SDS011;16861;52.294;7.760;2022-09-29T04:57:08;34.25;;;18.70;;
30020;SDS011;16861;52.294;7.760;2022-09-29T04:59:35;32.35;;;19.80;;
30020;SDS011;16861;52.294;7.760;2022-09-29T05:02:02;64.82;;;21.38;;
30020;SDS011;16861;52.294;7.760;2022-09-29T05:04:28;70.72;;;21.05;;
30020;SDS011;16861;52.294;7.760;2022-09-29T05:06:55;26.70;;;18.17;;
30020;SDS011;16861;52.294;7.760;2022-09-29T05:09:22;62.85;;;19.95;;
30020;SDS011;16861;52.294;7.760;2022-09-29T05:11:50;35.88;;;18.85;;
30020;SDS011;16861;52.294;7.760;2022-09-29T05:14:17;87.65;;;20.27;;
30020;SDS011;16861;52.294;7.760;2022-09-29T05:16:43;99.68;;;20.50;;
30020;SDS011;16861;52.294;7.760;2022-09-29T05:19:10;90.90;;;19.42;;
30020;SDS011;16861;52.294;7.760;2022-09-29T05:21:37;79.90;;;19.20;;
30020;SDS011;16861;52.294;7.760;2022-09-29T05:24:03;130.95;;;19.90;;
30020;SDS011;16861;52.294;7.760;2022-09-29T05:26:30;120.20;;;20.23;;
30020;SDS011;16861;52.294;7.760;2022-09-29T05:28:57;53.47;;;18.00;;
30020;SDS011;16861;52.294;7.760;2022-09-29T05:31:24;60.53;;;18.70;;
30020;SDS011;16861;52.294;7.760;2022-09-29T05:33:50;36.35;;;17.02;;
30020;SDS011;16861;52.294;7.760;2022-09-29T05:36:17;80.97;;;20.90;;
30020;SDS011;16861;52.294;7.760;2022-09-29T05:38:43;82.85;;;20.20;;
30020;SDS011;16861;52.294;7.760;2022-09-29T05:41:10;50.95;;;19.10;;
30020;SDS011;16861;52.294;7.760;2022-09-29T05:43:38;139.25;;;19.98;;
30020;SDS011;16861;52.294;7.760;2022-09-29T05:46:06;51.20;;;17.80;;
30020;SDS011;16861;52.294;7.760;2022-09-29T05:48:35;55.40;;;19.77;;
30020;SDS011;16861;52.294;7.760;2022-09-29T05:51:09;73.07;;;20.88;;
30020;SDS011;16861;52.294;7.760;2022-09-29T05:53:37;149.43;;;22.52;;
30020;SDS011;16861;52.294;7.760;2022-09-29T05:56:05;43.15;;;19.50;;
30020;SDS011;16861;52.294;7.760;2022-09-29T05:58:37;81.03;;;19.00;;
30020;SDS011;16861;52.294;7.760;2022-09-29T06:01:05;80.75;;;20.48;;
30020;SDS011;16861;52.294;7.760;2022-09-29T06:03:33;88.38;;;20.20;;
30020;SDS011;16861;52.294;7.760;2022-09-29T06:06:20;93.75;;;21.25;;
30020;SDS011;16861;52.294;7.760;2022-09-29T06:08:48;64.78;;;18.67;;
30020;SDS011;16861;52.294;7.760;2022-09-29T06:11:16;165.98;;;21.45;;
30020;SDS011;16861;52.294;7.760;2022-09-29T06:13:46;118.78;;;19.60;;
30020;SDS011;16861;52.294;7.760;2022-09-29T06:16:15;240.63;;;25.13;;
30020;SDS011;16861;52.294;7.760;2022-09-29T06:18:43;180.77;;;22.15;;
30020;SDS011;16861;52.294;7.760;2022-09-29T06:21:14;230.43;;;24.45;;
30020;SDS011;16861;52.294;7.760;2022-09-29T06:23:42;57.30;;;18.17;;
30020;SDS011;16861;52.294;7.760;2022-09-29T06:26:10;72.72;;;20.65;;
30020;SDS011;16861;52.294;7.760;2022-09-29T06:28:38;135.45;;;20.13;;
30020;SDS011;16861;52.294;7.760;2022-09-29T06:31:06;105.22;;;18.42;;
30020;SDS011;16861;52.294;7.760;2022-09-29T06:33:38;106.28;;;20.25;;
30020;SDS011;16861;52.294;7.760;2022-09-29T06:36:18;98.63;;;19.50;;
30020;SDS011;16861;52.294;7.760;2022-09-29T06:39:07;183.13;;;21.92;;
30020;SDS011;16861;52.294;7.760;2022-09-29T06:41:35;182.98;;;22.23;;
30020;SDS011;16861;52.294;7.760;2022-09-29T06:44:02;132.43;;;20.67;;
30020;SDS011;16861;52.294;7.760;2022-09-29T06:46:29;118.50;;;21.92;;
30020;SDS011;16861;52.294;7.760;2022-09-29T06:48:56;113.85;;;19.33;;
30020;SDS011;16861;52.294;7.760;2022-09-29T06:51:23;96.40;;;19.60;;
30020;SDS011;16861;52.294;7.760;2022-09-29T06:54:06;151.03;;;20.93;;
30020;SDS011;16861;52.294;7.760;2022-09-29T06:56:37;135.52;;;21.42;;
30020;SDS011;16861;52.294;7.760;2022-09-29T06:59:04;165.52;;;22.98;;
30020;SDS011;16861;52.294;7.760;2022-09-29T07:01:31;141.77;;;22.15;;
30020;SDS011;16861;52.294;7.760;2022-09-29T07:03:59;41.75;;;20.35;;
30020;SDS011;16861;52.294;7.760;2022-09-29T07:06:28;78.50;;;19.95;;
30020;SDS011;16861;52.294;7.760;2022-09-29T07:08:55;49.67;;;19.40;;
30020;SDS011;16861;52.294;7.760;2022-09-29T07:11:23;92.68;;;22.17;;
30020;SDS011;16861;52.294;7.760;2022-09-29T07:13:51;56.05;;;21.77;;
30020;SDS011;16861;52.294;7.760;2022-09-29T07:16:20;68.75;;;21.42;;
30020;SDS011;16861;52.294;7.760;2022-09-29T07:18:50;75.43;;;23.08;;
30020;SDS011;16861;52.294;7.760;2022-09-29T07:21:18;41.70;;;21.40;;
30020;SDS011;16861;52.294;7.760;2022-09-29T07:23:45;32.45;;;23.25;;
30020;SDS011;16861;52.294;7.760;2022-09-29T07:26:13;28.45;;;21.80;;
30020;SDS011;16861;52.294;7.760;2022-09-29T07:28:42;28.50;;;21.40;;
30020;SDS011;16861;52.294;7.760;2022-09-29T07:31:09;28.02;;;21.40;;
30020;SDS011;16861;52.294;7.760;2022-09-29T07:33:41;29.50;;;21.73;;
30020;SDS011;16861;52.294;7.760;2022-09-29T07:36:08;28.08;;;20.70;;
30020;SDS011;16861;52.294;7.760;2022-09-29T07:38:35;26.55;;;19.70;;
30020;SDS011;16861;52.294;7.760;2022-09-29T07:41:03;28.15;;;21.48;;
30020;SDS011;16861;52.294;7.760;2022-09-29T07:43:31;26.45;;;20.02;;
30020;SDS011;16861;52.294;7.760;2022-09-29T07:45:58;29.08;;;21.85;;
30020;SDS011;16861;52.294;7.760;2022-09-29T07:48:25;29.35;;;21.00;;
30020;SDS011;16861;52.294;7.760;2022-09-29T07:51:00;27.00;;;21.23;;
30020;SDS011;16861;52.294;7.760;2022-09-29T07:53:31;24.65;;;19.17;;
30020;SDS011;16861;52.294;7.760;2022-09-29T07:56:02;26.25;;;19.85;;
30020;SDS011;16861;52.294;7.760;2022-09-29T07:58:33;24.60;;;18.85;;
30020;SDS011;16861;52.294;7.760;2022-09-29T08:01:00;23.83;;;18.73;;
30020;SDS011;16861;52.294;7.760;2022-09-29T08:03:30;25.48;;;17.65;;
30020;SDS011;16861;52.294;7.760;2022-09-29T08:05:58;21.73;;;16.88;;
30020;SDS011;16861;52.294;7.760;2022-09-29T08:08:25;25.08;;;18.45;;
30020;SDS011;16861;52.294;7.760;2022-09-29T08:10:59;22.90;;;17.67;;
30020;SDS011;16861;52.294;7.760;2022-09-29T08:13:50;19.95;;;15.48;;
30020;SDS011;16861;52.294;7.760;2022-09-29T08:16:18;24.73;;;18.75;;
30020;SDS011;16861;52.294;7.760;2022-09-29T08:18:45;22.20;;;17.23;;
30020;SDS011;16861;52.294;7.760;2022-09-29T08:21:12;24.58;;;18.30;;
30020;SDS011;16861;52.294;7.760;2022-09-29T08:23:41;27.38;;;18.42;;
30020;SDS011;16861;52.294;7.760;2022-09-29T08:26:09;24.45;;;18.33;;
30020;SDS011;16861;52.294;7.760;2022-09-29T08:28:39;25.80;;;17.42;;
30020;SDS011;16861;52.294;7.760;2022-09-29T08:31:13;26.20;;;19.25;;
30020;SDS011;16861;52.294;7.760;2022-09-29T08:33:46;22.95;;;16.17;;
30020;SDS011;16861;52.294;7.760;2022-09-29T08:36:15;21.85;;;17.30;;
30020;SDS011;16861;52.294;7.760;2022-09-29T08:38:43;21.13;;;16.02;;
30020;SDS011;16861;52.294;7.760;2022-09-29T08:41:26;22.35;;;17.67;;
30020;SDS011;16861;52.294;7.760;2022-09-29T08:47:48;24.25;;;18.70;;
30020;SDS011;16861;52.294;7.760;2022-09-29T08:52:43;26.88;;;17.52;;
30020;SDS011;16861;52.294;7.760;2022-09-29T08:57:48;21.67;;;16.25;;
30020;SDS011;16861;52.294;7.760;2022-09-29T09:00:33;23.20;;;17.38;;
30020;SDS011;16861;52.294;7.760;2022-09-29T09:03:17;25.05;;;16.05;;
30020;SDS011;16861;52.294;7.760;2022-09-29T09:09:20;19.85;;;16.00;;
30020;SDS011;16861;52.294;7.760;2022-09-29T09:11:46;19.05;;;13.63;;
30020;SDS011;16861;52.294;7.760;2022-09-29T09:22:26;17.33;;;13.63;;
30020;SDS011;16861;52.294;7.760;2022-09-29T09:25:09;15.65;;;12.38;;
30020;SDS011;16861;52.294;7.760;2022-09-29T09:27:41;21.67;;;15.35;;
30020;SDS011;16861;52.294;7.760;2022-09-29T09:30:12;20.23;;;14.70;;
30020;SDS011;16861;52.294;7.760;2022-09-29T09:33:03;19.20;;;14.50;;
30020;SDS011;16861;52.294;7.760;2022-09-29T09:38:24;18.15;;;13.90;;
30020;SDS011;16861;52.294;7.760;2022-09-29T09:40:54;18.42;;;13.52;;
30020;SDS011;16861;52.294;7.760;2022-09-29T09:43:26;19.52;;;13.50;;
30020;SDS011;16861;52.294;7.760;2022-09-29T09:46:01;16.58;;;14.07;;
30020;SDS011;16861;52.294;7.760;2022-09-29T09:48:39;17.52;;;13.18;;
30020;SDS011;16861;52.294;7.760;2022-09-29T09:54:05;18.92;;;13.32;;
30020;SDS011;16861;52.294;7.760;2022-09-29T09:59:26;13.73;;;11.30;;
30020;SDS011;16861;52.294;7.760;2022-09-29T10:02:00;17.92;;;11.20;;
30020;SDS011;16861;52.294;7.760;2022-09-29T10:04:26;16.77;;;11.55;;
30020;SDS011;16861;52.294;7.760;2022-09-29T10:06:54;14.65;;;9.98;;
30020;SDS011;16861;52.294;7.760;2022-09-29T10:09:21;16.00;;;11.98;;
30020;SDS011;16861;52.294;7.760;2022-09-29T10:11:48;16.55;;;11.95;;
30020;SDS011;16861;52.294;7.760;2022-09-29T10:14:25;13.68;;;12.20;;
30020;SDS011;16861;52.294;7.760;2022-09-29T10:17:04;13.70;;;11.02;;
30020;SDS011;16861;52.294;7.760;2022-09-29T10:19:55;15.60;;;12.07;;
30020;SDS011;16861;52.294;7.760;2022-09-29T10:22:25;15.32;;;11.45;;
30020;SDS011;16861;52.294;7.760;2022-09-29T10:25:15;12.30;;;10.82;;
30020;SDS011;16861;52.294;7.760;2022-09-29T10:27:42;15.57;;;13.23;;
30020;SDS011;16861;52.294;7.760;2022-09-29T10:30:22;14.57;;;12.30;;
30020;SDS011;16861;52.294;7.760;2022-09-29T10:32:51;15.32;;;8.45;;
30020;SDS011;16861;52.294;7.760;2022-09-29T10:35:25;15.27;;;12.90;;
30020;SDS011;16861;52.294;7.760;2022-09-29T10:38:16;19.27;;;13.43;;
30020;SDS011;16861;52.294;7.760;2022-09-29T10:40:55;14.45;;;12.27;;
30020;SDS011;16861;52.294;7.760;2022-09-29T10:43:38;12.20;;;10.30;;
30020;SDS011;16861;52.294;7.760;2022-09-29T10:46:35;14.82;;;13.18;;
30020;SDS011;16861;52.294;7.760;2022-09-29T10:52:04;9.57;;;8.25;;
30020;SDS011;16861;52.294;7.760;2022-09-29T10:54:36;13.57;;;9.30;;
30020;SDS011;16861;52.294;7.760;2022-09-29T10:57:19;8.82;;;7.93;;
30020;SDS011;16861;52.294;7.760;2022-09-29T10:59:51;10.93;;;9.02;;
30020;SDS011;16861;52.294;7.760;2022-09-29T11:04:56;11.75;;;9.40;;
30020;SDS011;16861;52.294;7.760;2022-09-29T11:07:26;12.70;;;10.60;;
30020;SDS011;16861;52.294;7.760;2022-09-29T11:09:54;9.48;;;7.05;;
30020;SDS011;16861;52.294;7.760;2022-09-29T11:12:33;6.20;;;4.95;;
30020;SDS011;16861;52.294;7.760;2022-09-29T11:15:20;6.38;;;5.22;;
30020;SDS011;16861;52.294;7.760;2022-09-29T11:17:52;5.60;;;4.80;;
30020;SDS011;16861;52.294;7.760;2022-09-29T11:20:18;6.40;;;4.72;;
30020;SDS011;16861;52.294;7.760;2022-09-29T11:23:09;7.72;;;6.72;;
30020;SDS011;16861;52.294;7.760;2022-09-29T11:25:57;5.35;;;4.50;;
30020;SDS011;16861;52.294;7.760;2022-09-29T11:28:51;6.00;;;4.45;;
30020;SDS011;16861;52.294;7.760;2022-09-29T11:31:38;7.88;;;5.68;;
30020;SDS011;16861;52.294;7.760;2022-09-29T11:37:04;4.65;;;3.83;;
30020;SDS011;16861;52.294;7.760;2022-09-29T11:48:46;4.67;;;3.13;;
30020;SDS011;16861;52.294;7.760;2022-09-29T11:51:29;4.18;;;2.92;;
30020;SDS011;16861;52.294;7.760;2022-09-29T11:56:54;5.35;;;3.95;;
30020;SDS011;16861;52.294;7.760;2022-09-29T12:13:09;3.03;;;2.83;;
30020;SDS011;16861;52.294;7.760;2022-09-29T12:16:06;4.10;;;3.47;;
30020;SDS011;16861;52.294;7.760;2022-09-29T12:18:55;3.65;;;3.33;;
30020;SDS011;16861;52.294;7.760;2022-09-29T12:21:41;3.70;;;3.28;;
30020;SDS011;16861;52.294;7.760;2022-09-29T12:24:14;4.43;;;3.20;;
30020;SDS011;16861;52.294;7.760;2022-09-29T12:32:10;3.88;;;3.38;;
30020;SDS011;16861;52.294;7.760;2022-09-29T12:34:52;5.68;;;3.20;;
30020;SDS011;16861;52.294;7.760;2022-09-29T12:37:26;3.67;;;3.22;;
30020;SDS011;16861;52.294;7.760;2022-09-29T12:40:05;4.38;;;3.10;;
30020;SDS011;16861;52.294;7.760;2022-09-29T12:54:01;3.38;;;3.03;;
30020;SDS011;16861;52.294;7.760;2022-09-29T12:56:38;5.60;;;2.95;;
30020;SDS011;16861;52.294;7.760;2022-09-29T12:59:10;4.82;;;3.22;;
30020;SDS011;16861;52.294;7.760;2022-09-29T13:01:55;3.28;;;2.35;;
30020;SDS011;16861;52.294;7.760;2022-09-29T13:13:18;2.65;;;2.22;;
30020;SDS011;16861;52.294;7.760;2022-09-29T13:16:12;3.90;;;2.40;;
30020;SDS011;16861;52.294;7.760;2022-09-29T13:29:26;2.53;;;1.75;;
30020;SDS011;16861;52.294;7.760;2022-09-29T13:31:56;2.47;;;2.03;;
30020;SDS011;16861;52.294;7.760;2022-09-29T13:37:06;2.67;;;2.28;;
30020;SDS011;16861;52.294;7.760;2022-09-29T13:39:54;3.70;;;1.92;;
30020;SDS011;16861;52.294;7.760;2022-09-29T13:42:39;2.65;;;1.75;;
30020;SDS011;16861;52.294;7.760;2022-09-29T13:45:15;2.20;;;1.70;;
30020;SDS011;16861;52.294;7.760;2022-09-29T13:47:45;4.70;;;2.45;;
30020;SDS011;16861;52.294;7.760;2022-09-29T13:58:23;2.47;;;1.83;;
30020;SDS011;16861;52.294;7.760;2022-09-29T14:00:51;2.95;;;2.28;;
30020;SDS011;16861;52.294;7.760;2022-09-29T14:03:23;4.00;;;2.75;;
30020;SDS011;16861;52.294;7.760;2022-09-29T14:05:53;3.35;;;3.05;;
30020;SDS011;16861;52.294;7.760;2022-09-29T14:08:26;3.78;;;3.00;;
30020;SDS011;16861;52.294;7.760;2022-09-29T14:11:01;2.53;;;2.33;;
30020;SDS011;16861;52.294;7.760;2022-09-29T14:13:43;2.55;;;2.00;;
30020;SDS011;16861;52.294;7.760;2022-09-29T14:16:21;4.70;;;2.38;;
30020;SDS011;16861;52.294;7.760;2022-09-29T14:19:18;2.25;;;1.77;;
30020;SDS011;16861;52.294;7.760;2022-09-29T14:24:51;2.88;;;1.80;;
30020;SDS011;16861;52.294;7.760;2022-09-29T14:30:09;2.85;;;1.52;;
30020;SDS011;16861;52.294;7.760;2022-09-29T14:35:32;2.35;;;1.80;;
30020;SDS011;16861;52.294;7.760;2022-09-29T14:38:14;2.92;;;1.63;;
30020;SDS011;16861;52.294;7.760;2022-09-29T14:40:53;3.13;;;1.88;;
30020;SDS011;16861;52.294;7.760;2022-09-29T15:03:32;2.88;;;1.60;;
30020;SDS011;16861;52.294;7.760;2022-09-29T15:06:10;3.50;;;1.65;;
30020;SDS011;16861;52.294;7.760;2022-09-29T15:08:39;3.65;;;1.40;;
30020;SDS011;16861;52.294;7.760;2022-09-29T15:27:59;3.05;;;1.67;;
30020;SDS011;16861;52.294;7.760;2022-09-29T15:30:28;4.90;;;2.17;;
30020;SDS011;16861;52.294;7.760;2022-09-29T15:33:08;3.55;;;2.30;;
30020;SDS011;16861;52.294;7.760;2022-09-29T15:35:45;2.70;;;1.92;;
30020;SDS011;16861;52.294;7.760;2022-09-29T15:38:24;4.72;;;2.53;;
30020;SDS011;16861;52.294;7.760;2022-09-29T15:41:02;9.32;;;2.15;;
30020;SDS011;16861;52.294;7.760;2022-09-29T15:44:11;11.40;;;2.53;;
30020;SDS011;16861;52.294;7.760;2022-09-29T15:46:47;7.28;;;2.55;;
30020;SDS011;16861;52.294;7.760;2022-09-29T15:52:02;2.33;;;1.98;;
30020;SDS011;16861;52.294;7.760;2022-09-29T15:54:37;8.15;;;1.67;;
30020;SDS011;16861;52.294;7.760;2022-09-29T15:57:52;2.95;;;1.75;;
30020;SDS011;16861;52.294;7.760;2022-09-29T16:05:27;9.68;;;2.75;;
30020;SDS011;16861;52.294;7.760;2022-09-29T16:08:20;9.10;;;2.08;;
30020;SDS011;16861;52.294;7.760;2022-09-29T16:10:51;8.88;;;2.00;;
30020;SDS011;16861;52.294;7.760;2022-09-29T16:13:21;11.43;;;2.50;;
30020;SDS011;16861;52.294;7.760;2022-09-29T16:15:55;14.65;;;2.22;;
30020;SDS011;16861;52.294;7.760;2022-09-29T16:18:25;15.82;;;2.75;;
30020;SDS011;16861;52.294;7.760;2022-09-29T16:20:57;6.22;;;2.30;;
30020;SDS011;16861;52.294;7.760;2022-09-29T16:23:34;7.03;;;2.00;;
30020;SDS011;16861;52.294;7.760;2022-09-29T16:28:36;4.47;;;2.33;;
30020;SDS011;16861;52.294;7.760;2022-09-29T16:31:05;3.38;;;2.72;;
30020;SDS011;16861;52.294;7.760;2022-09-29T16:33:43;6.50;;;2.70;;
30020;SDS011;16861;52.294;7.760;2022-09-29T16:38:46;8.32;;;3.03;;
30020;SDS011;16861;52.294;7.760;2022-09-29T16:43:46;16.70;;;3.25;;
30020;SDS011;16861;52.294;7.760;2022-09-29T16:46:23;9.75;;;3.05;;
30020;SDS011;16861;52.294;7.760;2022-09-29T16:48:50;23.65;;;3.15;;
30020;SDS011;16861;52.294;7.760;2022-09-29T16:51:20;9.82;;;3.72;;
30020;SDS011;16861;52.294;7.760;2022-09-29T16:54:05;24.27;;;3.85;;
30020;SDS011;16861;52.294;7.760;2022-09-29T16:56:40;24.70;;;3.28;;
30020;SDS011;16861;52.294;7.760;2022-09-29T16:59:13;11.50;;;2.65;;
30020;SDS011;16861;52.294;7.760;2022-09-29T17:01:42;8.50;;;3.17;;
30020;SDS011;16861;52.294;7.760;2022-09-29T17:04:10;11.57;;;2.80;;
30020;SDS011;16861;52.294;7.760;2022-09-29T17:06:37;7.68;;;3.03;;
30020;SDS011;16861;52.294;7.760;2022-09-29T17:09:10;15.40;;;3.42;;
30020;SDS011;16861;52.294;7.760;2022-09-29T17:11:43;39.10;;;4.90;;
30020;SDS011;16861;52.294;7.760;2022-09-29T17:14:11;26.75;;;3.92;;
30020;SDS011;16861;52.294;7.760;2022-09-29T17:16:38;24.58;;;3.95;;
30020;SDS011;16861;52.294;7.760;2022-09-29T17:19:07;17.60;;;4.03;;
30020;SDS011;16861;52.294;7.760;2022-09-29T17:21:35;10.00;;;2.97;;
30020;SDS011;16861;52.294;7.760;2022-09-29T17:24:02;8.85;;;3.50;;
30020;SDS011;16861;52.294;7.760;2022-09-29T17:26:35;15.05;;;3.15;;
30020;SDS011;16861;52.294;7.760;2022-09-29T17:29:23;7.32;;;3.42;;
30020;SDS011;16861;52.294;7.760;2022-09-29T17:31:49;5.75;;;3.72;;
30020;SDS011;16861;52.294;7.760;2022-09-29T17:34:16;10.68;;;3.78;;
30020;SDS011;16861;52.294;7.760;2022-09-29T17:36:46;6.22;;;3.63;;
30020;SDS011;16861;52.294;7.760;2022-09-29T17:39:13;5.82;;;3.25;;
30020;SDS011;16861;52.294;7.760;2022-09-29T17:41:39;30.15;;;4.25;;
30020;SDS011;16861;52.294;7.760;2022-09-29T17:44:11;18.17;;;3.90;;
30020;SDS011;16861;52.294;7.760;2022-09-29T17:46:38;4.68;;;3.08;;
30020;SDS011;16861;52.294;7.760;2022-09-29T17:49:08;14.75;;;4.53;;
30020;SDS011;16861;52.294;7.760;2022-09-29T17:51:37;21.88;;;4.70;;
30020;SDS011;16861;52.294;7.760;2022-09-29T17:54:03;6.50;;;3.92;;
30020;SDS011;16861;52.294;7.760;2022-09-29T17:56:30;14.13;;;3.65;;
30020;SDS011;16861;52.294;7.760;2022-09-29T17:59:03;17.83;;;4.40;;
30020;SDS011;16861;52.294;7.760;2022-09-29T18:01:32;5.88;;;3.50;;
30020;SDS011;16861;52.294;7.760;2022-09-29T18:04:00;6.20;;;3.35;;
30020;SDS011;16861;52.294;7.760;2022-09-29T18:06:27;5.97;;;2.92;;
30020;SDS011;16861;52.294;7.760;2022-09-29T18:08:54;7.07;;;2.85;;
30020;SDS011;16861;52.294;7.760;2022-09-29T18:11:23;5.63;;;3.00;;
30020;SDS011;16861;52.294;7.760;2022-09-29T18:13:51;9.82;;;3.50;;
30020;SDS011;16861;52.294;7.760;2022-09-29T18:16:19;6.15;;;3.40;;
30020;SDS011;16861;52.294;7.760;2022-09-29T18:18:48;5.60;;;3.55;;
30020;SDS011;16861;52.294;7.760;2022-09-29T18:21:21;5.50;;;3.70;;